createdAt,value
2022-08-09T00:00:30.415Z,17.65
2022-08-09T00:01:43.039Z,17.56
2022-08-09T00:02:31.683Z,17.56
2022-08-09T00:04:10.181Z,17.52
2022-08-09T00:04:34.662Z,17.36
2022-08-09T00:06:16.562Z,17.49
2022-08-09T00:06:31.998Z,17.39
2022-08-09T00:07:30.354Z,17.34
2022-08-09T00:08:33.003Z,17.34
2022-08-09T00:09:31.265Z,17.36
2022-08-09T00:10:30.302Z,17.36
2022-08-09T00:11:58.617Z,17.34
2022-08-09T00:12:31.291Z,17.30
2022-08-09T00:13:31.710Z,17.30
2022-08-09T00:14:37.820Z,17.27
2022-08-09T00:15:57.725Z,17.22
2022-08-09T00:16:36.429Z,17.26
2022-08-09T00:18:05.839Z,17.31
2022-08-09T00:18:31.370Z,17.31
2022-08-09T00:19:30.199Z,17.16
2022-08-09T00:20:31.604Z,17.14
2022-08-09T00:21:30.175Z,17.09
2022-08-09T00:22:35.045Z,17.04
2022-08-09T00:23:54.642Z,17.08
2022-08-09T00:24:31.153Z,17.06
2022-08-09T00:25:33.068Z,17.02
2022-08-09T00:26:32.790Z,17.06
2022-08-09T00:27:30.119Z,16.93
2022-08-09T00:28:31.109Z,17.02
2022-08-09T00:30:10.249Z,16.96
2022-08-09T00:30:31.085Z,17.05
2022-08-09T00:31:58.095Z,17.06
2022-08-09T00:32:31.076Z,17.06
2022-08-09T00:33:49.123Z,17.09
2022-08-09T00:34:32.714Z,17.05
2022-08-09T00:35:30.019Z,17.05
2022-08-09T00:36:31.014Z,17.02
2022-08-09T00:37:32.285Z,16.97
2022-08-09T00:38:30.014Z,16.97
2022-08-09T00:40:13.518Z,16.86
2022-08-09T00:40:31.339Z,16.87
2022-08-09T00:44:15.389Z,16.89
2022-08-09T00:44:18.856Z,16.91
2022-08-09T00:44:24.768Z,16.91
2022-08-09T00:44:31.329Z,16.91
2022-08-09T00:45:29.906Z,16.99
2022-08-09T00:46:55.427Z,16.86
2022-08-09T00:47:35.879Z,16.86
2022-08-09T00:48:30.875Z,16.89
2022-08-09T00:49:30.379Z,16.84
2022-08-09T00:50:29.853Z,16.86
2022-08-09T00:51:34.100Z,16.87
2022-08-09T00:52:31.178Z,16.81
2022-08-09T00:53:29.816Z,16.79
2022-08-09T00:54:31.433Z,16.81
2022-08-09T00:56:04.026Z,16.84
2022-08-09T00:56:30.786Z,16.75
2022-08-09T00:57:33.704Z,16.65
2022-08-09T00:58:30.767Z,16.68
2022-08-09T00:59:41.102Z,16.71
2022-08-09T01:00:30.741Z,16.66
2022-08-09T01:01:32.134Z,16.66
2022-08-09T01:02:29.869Z,16.56
2022-08-09T01:03:29.712Z,16.57
2022-08-09T01:04:29.707Z,16.56
2022-08-09T01:05:53.181Z,16.58
2022-08-09T01:06:53.175Z,16.57
2022-08-09T01:07:38.019Z,16.58
2022-08-09T01:08:30.650Z,16.47
2022-08-09T01:09:36.938Z,16.49
2022-08-09T01:10:30.631Z,16.50
2022-08-09T01:11:29.616Z,16.46
2022-08-09T01:12:29.772Z,16.54
2022-08-09T01:13:31.120Z,16.46
2022-08-09T01:14:30.598Z,16.42
2022-08-09T01:15:29.575Z,16.49
2022-08-09T01:16:29.563Z,16.43
2022-08-09T01:17:30.215Z,16.50
2022-08-09T01:18:30.437Z,16.46
2022-08-09T01:19:43.018Z,16.49
2022-08-09T01:20:30.522Z,16.43
2022-08-09T01:21:41.149Z,16.41
2022-08-09T01:22:30.677Z,16.49
2022-08-09T01:24:03.530Z,16.41
2022-08-09T01:24:30.482Z,16.38
2022-08-09T01:25:29.458Z,16.41
2022-08-09T01:26:29.455Z,16.41
2022-08-09T01:27:29.452Z,16.42
2022-08-09T01:28:29.429Z,16.38
2022-08-09T01:29:29.425Z,16.39
2022-08-09T01:30:46.689Z,16.29
2022-08-09T01:32:32.231Z,16.43
2022-08-09T01:32:34.022Z,16.32
2022-08-09T01:33:29.378Z,16.33
2022-08-09T01:34:29.399Z,16.38
2022-08-09T01:35:38.464Z,16.31
2022-08-09T01:36:30.350Z,16.32
2022-08-09T01:38:06.316Z,16.23
2022-08-09T01:38:30.313Z,16.31
2022-08-09T01:39:29.373Z,16.26
2022-08-09T01:40:29.330Z,16.24
2022-08-09T01:41:29.280Z,16.24
2022-08-09T01:42:29.284Z,16.26
2022-08-09T01:43:29.261Z,16.24
2022-08-09T01:44:29.247Z,16.21
2022-08-09T01:45:29.296Z,16.21
2022-08-09T01:46:29.227Z,16.23
2022-08-09T01:47:31.295Z,16.29
2022-08-09T01:48:29.796Z,16.20
2022-08-09T01:49:38.750Z,16.28
2022-08-09T01:50:36.819Z,16.31
2022-08-09T01:51:32.209Z,16.28
2022-08-09T01:52:29.962Z,16.23
2022-08-09T01:53:41.425Z,16.26
2022-08-09T01:54:32.787Z,16.29
2022-08-09T01:55:29.135Z,16.24
2022-08-09T01:56:29.126Z,16.29
2022-08-09T01:57:29.168Z,16.26
2022-08-09T01:58:36.183Z,16.24
2022-08-09T01:59:32.436Z,16.31
2022-08-09T02:00:35.053Z,16.23
2022-08-09T02:01:30.589Z,16.26
2022-08-09T02:02:31.579Z,16.29
2022-08-09T02:03:29.042Z,16.24
2022-08-09T02:04:29.045Z,16.26
2022-08-09T02:05:35.505Z,16.23
2022-08-09T02:06:30.024Z,16.29
2022-08-09T02:08:38.413Z,16.28
2022-08-09T02:08:38.590Z,16.24
2022-08-09T02:09:42.261Z,16.24
2022-08-09T02:10:30.395Z,16.21
2022-08-09T02:11:42.168Z,16.20
2022-08-09T02:12:30.774Z,16.24
2022-08-09T02:13:37.558Z,16.24
2022-08-09T02:14:29.907Z,16.20
2022-08-09T02:15:48.906Z,16.24
2022-08-09T02:16:33.911Z,16.21
2022-08-09T02:18:00.573Z,16.21
2022-08-09T02:18:29.861Z,16.23
2022-08-09T02:19:38.737Z,16.21
2022-08-09T02:20:32.783Z,16.23
2022-08-09T02:21:28.847Z,16.29
2022-08-09T02:22:31.765Z,16.24
2022-08-09T02:23:39.548Z,16.26
2022-08-09T02:24:29.797Z,16.23
2022-08-09T02:25:28.812Z,16.23
2022-08-09T02:26:28.785Z,16.20
2022-08-09T02:27:58.158Z,16.21
2022-08-09T02:28:29.784Z,16.21
2022-08-09T02:29:28.757Z,16.24
2022-08-09T02:30:28.732Z,16.17
2022-08-09T02:31:28.724Z,16.09
2022-08-09T02:32:29.772Z,16.12
2022-08-09T02:33:58.402Z,16.04
2022-08-09T02:34:41.608Z,16.12
2022-08-09T02:35:46.280Z,16.00
2022-08-09T02:36:29.669Z,16.00
2022-08-09T02:37:31.839Z,16.05
2022-08-09T02:38:29.746Z,16.04
2022-08-09T02:39:34.016Z,16.00
2022-08-09T02:40:30.508Z,16.02
2022-08-09T02:41:28.624Z,16.01
2022-08-09T02:42:28.600Z,16.00
2022-08-09T02:43:28.713Z,16.05
2022-08-09T02:44:29.316Z,16.04
2022-08-09T02:45:28.847Z,16.00
2022-08-09T02:46:28.790Z,15.95
2022-08-09T02:47:28.548Z,15.94
2022-08-09T02:48:30.744Z,15.97
2022-08-09T02:49:38.795Z,15.97
2022-08-09T02:50:29.519Z,15.92
2022-08-09T02:51:28.500Z,15.95
2022-08-09T02:52:29.512Z,15.94
2022-08-09T02:53:28.500Z,15.90
2022-08-09T02:54:28.462Z,15.88
2022-08-09T02:55:39.346Z,15.90
2022-08-09T02:56:29.446Z,15.83
2022-08-09T02:57:28.431Z,15.98
2022-08-09T02:58:36.331Z,15.86
2022-08-09T02:59:36.274Z,15.86
2022-08-09T03:00:29.396Z,15.90
2022-08-09T03:01:42.663Z,15.90
2022-08-09T03:02:29.549Z,15.94
2022-08-09T03:04:13.084Z,15.84
2022-08-09T03:04:29.762Z,15.91
2022-08-09T03:05:28.437Z,15.82
2022-08-09T03:06:29.135Z,15.82
2022-08-09T03:07:28.341Z,15.91
2022-08-09T03:08:28.310Z,15.82
2022-08-09T03:09:33.715Z,15.80
2022-08-09T03:10:29.287Z,15.82
2022-08-09T03:12:04.177Z,15.86
2022-08-09T03:12:29.362Z,15.80
2022-08-09T03:13:28.256Z,15.88
2022-08-09T03:14:29.250Z,15.73
2022-08-09T03:16:04.446Z,15.82
2022-08-09T03:16:29.267Z,15.73
2022-08-09T03:17:28.214Z,15.83
2022-08-09T03:18:31.048Z,15.76
2022-08-09T03:19:52.449Z,15.72
2022-08-09T03:20:29.635Z,15.79
2022-08-09T03:21:28.178Z,15.65
2022-08-09T03:22:30.380Z,15.76
2022-08-09T03:23:28.144Z,15.65
2022-08-09T03:24:42.094Z,15.67
2022-08-09T03:25:57.778Z,15.70
2022-08-09T03:26:31.910Z,15.72
2022-08-09T03:27:28.122Z,15.64
2022-08-09T03:28:29.117Z,15.70
2022-08-09T03:29:28.089Z,15.62
2022-08-09T03:30:33.102Z,15.72
2022-08-09T03:31:28.057Z,15.73
2022-08-09T03:32:28.058Z,15.72
2022-08-09T03:33:52.984Z,15.62
2022-08-09T03:34:29.024Z,15.72
2022-08-09T03:36:11.873Z,15.65
2022-08-09T03:36:28.997Z,15.67
2022-08-09T03:37:56.414Z,15.65
2022-08-09T03:38:30.340Z,15.57
2022-08-09T03:39:28.839Z,15.65
2022-08-09T03:40:30.853Z,15.62
2022-08-09T03:41:29.979Z,15.67
2022-08-09T03:42:29.059Z,15.52
2022-08-09T03:43:31.581Z,15.57
2022-08-09T03:44:27.916Z,15.57
2022-08-09T03:46:04.918Z,15.51
2022-08-09T03:46:29.377Z,15.54
2022-08-09T03:47:27.880Z,15.54
2022-08-09T03:48:30.951Z,15.49
2022-08-09T03:49:29.975Z,15.46
2022-08-09T03:50:31.859Z,15.54
2022-08-09T03:51:43.821Z,15.59
2022-08-09T03:52:28.818Z,15.52
2022-08-09T03:53:32.165Z,15.61
2022-08-09T03:54:29.111Z,15.46
2022-08-09T03:55:30.119Z,15.44
2022-08-09T03:56:27.774Z,15.44
2022-08-09T03:57:27.774Z,15.49
2022-08-09T03:58:27.748Z,15.47
2022-08-09T03:59:43.203Z,15.49
2022-08-09T04:00:28.757Z,15.46
2022-08-09T04:01:27.727Z,15.47
2022-08-09T04:02:28.698Z,15.46
2022-08-09T04:03:45.778Z,15.49
2022-08-09T04:04:36.197Z,15.43
2022-08-09T04:05:28.674Z,15.43
2022-08-09T04:06:27.669Z,15.46
2022-08-09T04:07:47.380Z,15.40
2022-08-09T04:08:29.043Z,15.39
2022-08-09T04:09:48.250Z,15.42
2022-08-09T04:10:30.388Z,15.44
2022-08-09T04:11:27.609Z,15.43
2022-08-09T04:12:30.842Z,15.46
2022-08-09T04:14:37.546Z,15.47
2022-08-09T04:14:52.879Z,15.46
2022-08-09T04:15:40.416Z,15.47
2022-08-09T04:16:28.557Z,15.47
2022-08-09T04:17:29.591Z,15.55
2022-08-09T04:18:28.219Z,15.47
2022-08-09T04:19:42.809Z,15.44
2022-08-09T04:20:28.967Z,15.51
2022-08-09T04:21:27.495Z,15.51
2022-08-09T04:22:28.821Z,15.42
2022-08-09T04:23:27.476Z,15.49
2022-08-09T04:24:27.460Z,15.47
2022-08-09T04:25:27.465Z,15.46
2022-08-09T04:26:35.182Z,15.35
2022-08-09T04:27:29.103Z,15.35
2022-08-09T04:28:33.301Z,15.36
2022-08-09T04:29:30.013Z,15.33
2022-08-09T04:30:28.810Z,15.37
2022-08-09T04:31:37.695Z,15.36
2022-08-09T04:32:33.606Z,15.28
2022-08-09T04:33:28.717Z,15.28
2022-08-09T04:34:30.762Z,15.33
2022-08-09T04:35:27.351Z,15.37
2022-08-09T04:36:27.345Z,15.33
2022-08-09T04:37:45.156Z,15.24
2022-08-09T04:38:28.303Z,15.24
2022-08-09T04:39:30.941Z,15.24
2022-08-09T04:40:36.046Z,15.31
2022-08-09T04:41:32.291Z,15.28
2022-08-09T04:42:28.258Z,15.29
2022-08-09T04:43:27.258Z,15.39
2022-08-09T04:44:28.246Z,15.35
2022-08-09T04:45:30.823Z,15.39
2022-08-09T04:46:57.565Z,15.35
2022-08-09T04:47:28.206Z,15.33
2022-08-09T04:48:33.450Z,15.39
2022-08-09T04:49:40.430Z,15.40
2022-08-09T04:50:31.908Z,15.42
2022-08-09T04:51:28.232Z,15.36
2022-08-09T04:52:28.157Z,15.36
2022-08-09T04:53:27.146Z,15.29
2022-08-09T04:54:27.140Z,15.36
2022-08-09T04:55:27.120Z,15.33
2022-08-09T04:56:28.108Z,15.33
2022-08-09T04:57:27.148Z,15.36
2022-08-09T04:58:28.098Z,15.39
2022-08-09T04:59:27.074Z,15.37
2022-08-09T05:00:31.634Z,15.35
2022-08-09T05:01:27.065Z,15.22
2022-08-09T05:02:27.173Z,15.27
2022-08-09T05:03:40.614Z,15.33
2022-08-09T05:04:30.655Z,15.31
2022-08-09T05:05:31.979Z,15.31
2022-08-09T05:06:30.605Z,15.25
2022-08-09T05:07:27.667Z,15.31
2022-08-09T05:08:26.975Z,15.31
2022-08-09T05:09:42.098Z,15.39
2022-08-09T05:10:27.954Z,15.31
2022-08-09T05:11:26.980Z,15.44
2022-08-09T05:12:26.932Z,15.35
2022-08-09T05:13:26.923Z,15.42
2022-08-09T05:14:27.015Z,15.49
2022-08-09T05:15:38.995Z,15.44
2022-08-09T05:16:31.703Z,15.44
2022-08-09T05:18:37.484Z,15.46
2022-08-09T05:18:38.717Z,15.47
2022-08-09T05:19:44.497Z,15.46
2022-08-09T05:20:29.976Z,15.58
2022-08-09T05:21:30.218Z,15.54
2022-08-09T05:23:51.053Z,15.55
2022-08-09T05:23:53.534Z,15.52
2022-08-09T05:24:27.797Z,15.46
2022-08-09T05:25:32.377Z,15.55
2022-08-09T05:26:36.715Z,15.57
2022-08-09T05:27:27.767Z,15.51
2022-08-09T05:28:26.763Z,15.59
2022-08-09T05:29:31.491Z,15.64
2022-08-09T05:30:31.159Z,15.67
2022-08-09T05:31:44.870Z,15.72
2022-08-09T05:32:30.049Z,15.67
2022-08-09T05:33:32.706Z,15.80
2022-08-09T05:34:31.340Z,15.77
2022-08-09T05:35:27.683Z,15.92
2022-08-09T05:36:28.954Z,15.86
2022-08-09T05:37:26.669Z,15.92
2022-08-09T05:38:27.977Z,15.94
2022-08-09T05:39:29.018Z,16.02
2022-08-09T05:40:26.616Z,16.12
2022-08-09T05:41:26.635Z,16.32
2022-08-09T05:42:28.178Z,16.32
2022-08-09T05:43:28.981Z,16.49
2022-08-09T05:44:29.110Z,16.54
2022-08-09T05:45:27.582Z,16.60
2022-08-09T05:46:27.582Z,16.90
2022-08-09T05:47:27.102Z,16.89
2022-08-09T05:48:32.733Z,17.02
2022-08-09T05:50:14.870Z,17.14
2022-08-09T05:50:50.742Z,17.09
2022-08-09T05:51:42.322Z,17.15
2022-08-09T05:52:27.577Z,17.20
2022-08-09T05:53:33.235Z,17.33
2022-08-09T05:54:27.468Z,17.49
2022-08-09T05:55:26.455Z,17.64
2022-08-09T05:56:26.457Z,17.72
2022-08-09T05:57:55.120Z,17.71
2022-08-09T05:58:27.415Z,17.95
2022-08-09T05:59:26.413Z,18.08
2022-08-09T06:00:26.406Z,18.23
2022-08-09T06:01:26.403Z,18.34
2022-08-09T06:02:27.459Z,18.44
2022-08-09T06:03:34.640Z,18.60
2022-08-09T06:04:34.548Z,18.68
2022-08-09T06:05:31.203Z,18.95
2022-08-09T06:06:27.331Z,19.15
2022-08-09T06:07:26.363Z,19.27
2022-08-09T06:08:26.358Z,19.27
2022-08-09T06:09:54.417Z,19.29
2022-08-09T06:10:27.334Z,19.33
2022-08-09T06:11:41.215Z,19.26
2022-08-09T06:12:27.296Z,19.26
2022-08-09T06:13:27.003Z,19.39
2022-08-09T06:14:26.369Z,19.40
2022-08-09T06:15:26.546Z,19.45
2022-08-09T06:16:26.222Z,19.74
2022-08-09T06:17:26.285Z,19.92
2022-08-09T06:18:27.215Z,20.09
2022-08-09T06:19:27.635Z,20.28
2022-08-09T06:20:26.186Z,20.44
2022-08-09T06:21:26.180Z,20.65
2022-08-09T06:22:26.316Z,20.96
2022-08-09T06:23:58.785Z,21.22
2022-08-09T06:24:27.142Z,21.24
2022-08-09T06:25:26.121Z,21.22
2022-08-09T06:26:28.597Z,21.24
2022-08-09T06:27:26.212Z,21.25
2022-08-09T06:28:27.516Z,21.25
2022-08-09T06:29:26.851Z,21.43
2022-08-09T06:30:26.094Z,21.72
2022-08-09T06:31:30.449Z,21.82
2022-08-09T06:32:59.108Z,22.06
2022-08-09T06:33:39.807Z,21.98
2022-08-09T06:34:30.789Z,21.85
2022-08-09T06:35:56.521Z,21.98
2022-08-09T06:36:29.741Z,21.99
2022-08-09T06:37:29.006Z,22.02
2022-08-09T06:38:32.256Z,22.10
2022-08-09T06:39:39.586Z,22.11
2022-08-09T06:40:27.036Z,22.15
2022-08-09T06:42:00.467Z,22.17
2022-08-09T06:42:30.592Z,22.38
2022-08-09T06:43:26.932Z,22.39
2022-08-09T06:44:26.926Z,22.35
2022-08-09T06:46:05.083Z,22.30
2022-08-09T06:46:40.425Z,22.29
2022-08-09T06:47:29.978Z,22.38
2022-08-09T06:48:30.938Z,22.38
2022-08-09T06:49:44.721Z,22.35
2022-08-09T06:50:26.863Z,22.62
2022-08-09T06:51:25.838Z,22.62
2022-08-09T06:52:25.923Z,22.57
2022-08-09T06:53:25.964Z,22.60
2022-08-09T06:54:26.294Z,22.57
2022-08-09T06:55:25.797Z,22.54
2022-08-09T06:56:30.931Z,22.48
2022-08-09T06:58:01.478Z,22.48
2022-08-09T06:58:40.855Z,22.53
2022-08-09T07:00:51.713Z,22.66
2022-08-09T07:00:54.465Z,22.65
2022-08-09T07:01:27.478Z,22.59
2022-08-09T07:02:29.439Z,22.60
2022-08-09T07:03:27.921Z,22.55
2022-08-09T07:04:27.111Z,22.44
2022-08-09T07:06:02.720Z,22.44
2022-08-09T07:06:28.019Z,22.53
2022-08-09T07:07:28.529Z,22.63
2022-08-09T07:08:26.669Z,22.50
2022-08-09T07:09:55.663Z,22.48
2022-08-09T07:10:32.021Z,22.44
2022-08-09T07:11:26.616Z,22.54
2022-08-09T07:12:38.414Z,22.53
2022-08-09T07:13:28.036Z,22.51
2022-08-09T07:14:26.444Z,22.41
2022-08-09T07:15:54.073Z,22.30
2022-08-09T07:16:43.972Z,22.28
2022-08-09T07:17:26.551Z,22.32
2022-08-09T07:18:26.543Z,22.30
2022-08-09T07:19:25.547Z,22.39
2022-08-09T07:20:25.522Z,22.44
2022-08-09T07:21:25.509Z,22.47
2022-08-09T07:22:34.349Z,22.62
2022-08-09T07:23:26.493Z,22.68
2022-08-09T07:24:32.197Z,22.70
2022-08-09T07:25:26.472Z,22.72
2022-08-09T07:26:25.465Z,22.76
2022-08-09T07:27:27.146Z,22.81
2022-08-09T07:28:28.140Z,22.75
2022-08-09T07:29:25.494Z,22.81
2022-08-09T07:30:28.850Z,22.84
2022-08-09T07:31:26.417Z,22.81
2022-08-09T07:32:32.165Z,22.78
2022-08-09T07:33:26.419Z,22.66
2022-08-09T07:34:25.735Z,22.39
2022-08-09T07:35:25.788Z,22.39
2022-08-09T07:36:25.353Z,22.41
2022-08-09T07:37:25.337Z,22.47
2022-08-09T07:38:25.332Z,22.38
2022-08-09T07:39:41.617Z,22.51
2022-08-09T07:40:26.915Z,22.50
2022-08-09T07:41:25.292Z,22.54
2022-08-09T07:42:32.952Z,22.66
2022-08-09T07:43:26.401Z,22.72
2022-08-09T07:44:33.112Z,22.65
2022-08-09T07:45:39.918Z,22.70
2022-08-09T07:46:27.630Z,22.68
2022-08-09T07:47:25.312Z,22.78
2022-08-09T07:48:30.150Z,22.76
2022-08-09T07:49:26.391Z,22.78
2022-08-09T07:50:32.999Z,22.81
2022-08-09T07:52:06.298Z,22.84
2022-08-09T07:52:26.171Z,22.81
2022-08-09T07:53:36.409Z,22.91
2022-08-09T07:54:28.218Z,22.87
2022-08-09T07:55:25.140Z,22.91
2022-08-09T07:56:26.841Z,22.99
2022-08-09T07:57:35.600Z,22.94
2022-08-09T07:59:50.935Z,23.06
2022-08-09T08:00:59.083Z,23.10
2022-08-09T08:01:40.060Z,23.08
2022-08-09T08:02:42.588Z,23.20
2022-08-09T08:03:39.000Z,23.20
2022-08-09T08:04:39.054Z,23.23
2022-08-09T08:05:54.212Z,23.34
2022-08-09T08:06:55.667Z,23.31
2022-08-09T08:09:01.060Z,23.31
2022-08-09T08:09:02.066Z,23.34
2022-08-09T08:09:51.731Z,23.34
2022-08-09T08:10:39.921Z,23.24
2022-08-09T08:12:10.009Z,23.31
2022-08-09T08:12:42.861Z,23.46
2022-08-09T08:13:55.880Z,23.44
2022-08-09T08:14:39.864Z,23.50
2022-08-09T08:15:39.438Z,23.51
2022-08-09T08:16:39.650Z,23.65
2022-08-09T08:17:53.211Z,23.73
2022-08-09T08:18:39.817Z,23.81
2022-08-09T08:19:38.807Z,23.87
2022-08-09T08:20:38.798Z,24.03
2022-08-09T08:21:39.803Z,24.06
2022-08-09T08:22:39.802Z,24.05
2022-08-09T08:23:38.765Z,24.17
2022-08-09T08:24:40.732Z,24.21
2022-08-09T08:25:44.146Z,24.28
2022-08-09T08:26:54.881Z,24.23
2022-08-09T08:27:40.921Z,24.29
2022-08-09T08:28:38.706Z,24.32
2022-08-09T08:29:39.660Z,24.35
2022-08-09T08:30:39.691Z,24.26
2022-08-09T08:31:56.545Z,24.42
2022-08-09T08:32:39.806Z,24.39
2022-08-09T08:33:40.766Z,24.36
2022-08-09T08:34:39.643Z,24.51
2022-08-09T08:35:58.377Z,24.51
2022-08-09T08:36:40.125Z,24.48
2022-08-09T08:37:41.898Z,24.53
2022-08-09T08:38:39.595Z,24.54
2022-08-09T08:39:43.732Z,24.61
2022-08-09T08:40:39.585Z,24.63
2022-08-09T08:41:50.381Z,24.73
2022-08-09T08:42:39.564Z,24.70
2022-08-09T08:43:38.544Z,24.78
2022-08-09T08:44:39.465Z,24.60
2022-08-09T08:45:38.534Z,24.66
2022-08-09T08:47:00.036Z,24.76
2022-08-09T08:47:42.823Z,24.76
2022-08-09T08:48:39.485Z,24.89
2022-08-09T08:49:47.130Z,24.88
2022-08-09T08:50:39.462Z,24.95
2022-08-09T08:51:41.535Z,25.11
2022-08-09T08:52:59.015Z,25.11
2022-08-09T08:53:39.444Z,25.21
2022-08-09T08:54:39.418Z,25.21
2022-08-09T08:55:38.419Z,25.11
2022-08-09T08:56:38.399Z,25.22
2022-08-09T08:57:38.393Z,24.96
2022-08-09T08:58:38.392Z,24.99
2022-08-09T08:59:47.022Z,24.92
2022-08-09T09:00:39.352Z,24.86
2022-08-09T09:01:52.189Z,24.89
2022-08-09T09:02:39.711Z,24.89
2022-08-09T09:03:38.456Z,24.96
2022-08-09T09:04:47.762Z,24.93
2022-08-09T09:05:58.973Z,25.10
2022-08-09T09:06:39.291Z,25.13
2022-08-09T09:07:42.421Z,25.25
2022-08-09T09:08:42.167Z,25.10
2022-08-09T09:09:58.333Z,25.10
2022-08-09T09:10:39.255Z,25.13
2022-08-09T09:11:38.509Z,25.11
2022-08-09T09:12:38.239Z,25.21
2022-08-09T09:13:50.297Z,25.21
2022-08-09T09:14:39.205Z,25.22
2022-08-09T09:15:38.195Z,25.17
2022-08-09T09:16:38.194Z,25.23
2022-08-09T09:17:49.046Z,25.22
2022-08-09T09:18:39.188Z,25.35
2022-08-09T09:19:41.423Z,25.40
2022-08-09T09:20:38.141Z,25.33
2022-08-09T09:21:43.232Z,25.40
2022-08-09T09:22:39.324Z,25.47
2022-08-09T09:23:38.191Z,25.40
2022-08-09T09:24:38.790Z,25.46
2022-08-09T09:26:01.499Z,25.60
2022-08-09T09:26:39.095Z,25.62
2022-08-09T09:28:06.448Z,25.59
2022-08-09T09:29:03.525Z,25.70
2022-08-09T09:30:10.619Z,25.84
2022-08-09T09:30:39.893Z,25.88
2022-08-09T09:32:07.115Z,25.99
2022-08-09T09:32:39.061Z,25.91
2022-08-09T09:33:44.954Z,25.93
2022-08-09T09:34:39.009Z,25.96
2022-08-09T09:35:38.978Z,25.90
2022-08-09T09:36:37.962Z,26.07
2022-08-09T09:37:40.652Z,26.00
2022-08-09T09:38:37.943Z,25.98
2022-08-09T09:39:50.213Z,25.96
2022-08-09T09:40:38.940Z,25.93
2022-08-09T09:41:48.603Z,25.99
2022-08-09T09:42:38.898Z,26.13
2022-08-09T09:43:41.533Z,26.16
2022-08-09T09:44:38.887Z,26.25
2022-08-09T09:45:56.802Z,26.23
2022-08-09T09:46:41.737Z,26.44
2022-08-09T09:47:47.618Z,26.44
2022-08-09T09:48:38.833Z,26.43
2022-08-09T09:49:56.276Z,26.34
2022-08-09T09:50:38.832Z,26.28
2022-08-09T09:51:40.382Z,26.21
2022-08-09T09:52:37.857Z,26.26
2022-08-09T09:53:57.984Z,26.25
2022-08-09T09:54:38.766Z,26.16
2022-08-09T09:55:37.762Z,25.99
2022-08-09T09:56:37.758Z,25.98
2022-08-09T09:58:02.227Z,26.00
2022-08-09T09:58:38.724Z,25.83
2022-08-09T09:59:37.714Z,25.83
2022-08-09T10:00:37.713Z,25.80
2022-08-09T10:01:40.742Z,25.99
2022-08-09T10:02:37.678Z,25.95
2022-08-09T10:03:37.769Z,26.09
2022-08-09T10:04:37.743Z,26.09
2022-08-09T10:06:00.571Z,26.22
2022-08-09T10:06:38.634Z,26.26
2022-08-09T10:07:37.627Z,26.25
2022-08-09T10:08:54.448Z,26.16
2022-08-09T10:09:40.868Z,26.10
2022-08-09T10:10:38.622Z,26.15
2022-08-09T10:12:00.841Z,26.31
2022-08-09T10:12:43.794Z,26.31
2022-08-09T10:13:43.721Z,26.36
2022-08-09T10:14:38.626Z,26.36
2022-08-09T10:16:09.062Z,26.33
2022-08-09T10:16:56.082Z,26.44
2022-08-09T10:17:50.735Z,26.52
2022-08-09T10:18:38.510Z,26.48
2022-08-09T10:19:38.509Z,26.48
2022-08-09T10:20:44.793Z,26.48
2022-08-09T10:21:38.491Z,26.47
2022-08-09T10:22:37.462Z,26.52
2022-08-09T10:23:37.453Z,26.52
2022-08-09T10:24:37.468Z,26.45
2022-08-09T10:26:06.836Z,26.48
2022-08-09T10:26:38.419Z,26.55
2022-08-09T10:27:45.162Z,26.52
2022-08-09T10:28:38.536Z,26.68
2022-08-09T10:30:48.093Z,26.60
2022-08-09T10:32:42.502Z,26.58
2022-08-09T10:34:08.976Z,26.55
2022-08-09T10:34:38.333Z,26.66
2022-08-09T10:35:37.342Z,26.63
2022-08-09T10:36:37.322Z,26.73
2022-08-09T10:37:38.973Z,26.68
2022-08-09T10:38:56.490Z,26.75
2022-08-09T10:39:40.625Z,26.73
2022-08-09T10:40:41.114Z,26.81
2022-08-09T10:41:38.267Z,26.80
2022-08-09T10:42:37.249Z,26.83
2022-08-09T10:43:47.026Z,26.90
2022-08-09T10:44:39.847Z,26.84
2022-08-09T10:45:42.369Z,26.84
2022-08-09T10:46:52.602Z,26.85
2022-08-09T10:48:16.431Z,26.56
2022-08-09T10:48:38.210Z,26.65
2022-08-09T10:49:50.170Z,26.68
2022-08-09T10:50:38.151Z,26.55
2022-08-09T10:51:41.250Z,26.60
2022-08-09T10:52:37.132Z,26.74
2022-08-09T10:53:39.484Z,26.60
2022-08-09T10:54:38.108Z,26.55
2022-08-09T10:55:55.379Z,26.51
2022-08-09T10:56:38.089Z,26.53
2022-08-09T10:57:37.779Z,26.62
2022-08-09T10:58:37.666Z,26.68
2022-08-09T10:59:55.544Z,26.77
2022-08-09T11:00:41.780Z,26.99
2022-08-09T11:03:12.076Z,27.07
2022-08-09T11:03:13.339Z,26.96
2022-08-09T11:03:51.001Z,27.08
2022-08-09T11:04:38.063Z,26.99
2022-08-09T11:05:38.053Z,27.05
2022-08-09T11:06:37.980Z,26.93
2022-08-09T11:07:58.244Z,26.80
2022-08-09T11:08:43.732Z,26.81
2022-08-09T11:09:37.955Z,26.80
2022-08-09T11:10:36.933Z,26.77
2022-08-09T11:11:36.926Z,26.89
2022-08-09T11:12:38.392Z,26.88
2022-08-09T11:13:50.530Z,27.05
2022-08-09T11:14:37.982Z,26.95
2022-08-09T11:15:38.521Z,26.93
2022-08-09T11:16:38.081Z,26.92
2022-08-09T11:17:41.721Z,26.75
2022-08-09T11:18:37.847Z,26.85
2022-08-09T11:20:10.600Z,26.75
2022-08-09T11:20:37.821Z,26.73
2022-08-09T11:21:36.811Z,26.68
2022-08-09T11:22:37.062Z,26.65
2022-08-09T11:23:36.789Z,26.80
2022-08-09T11:24:36.784Z,26.66
2022-08-09T11:25:47.906Z,26.70
2022-08-09T11:26:37.758Z,26.47
2022-08-09T11:28:02.323Z,26.51
2022-08-09T11:28:54.292Z,26.48
2022-08-09T11:30:06.253Z,26.58
2022-08-09T11:30:38.486Z,26.68
2022-08-09T11:31:36.955Z,26.80
2022-08-09T11:32:36.693Z,26.81
2022-08-09T11:33:36.680Z,26.85
2022-08-09T11:34:36.687Z,26.88
2022-08-09T11:35:49.345Z,26.81
2022-08-09T11:36:37.667Z,26.60
2022-08-09T11:37:40.857Z,26.62
2022-08-09T11:38:41.426Z,26.55
2022-08-09T11:39:38.596Z,26.44
2022-08-09T11:40:36.617Z,26.53
2022-08-09T11:41:38.374Z,26.60
2022-08-09T11:42:36.598Z,26.63
2022-08-09T11:43:37.432Z,26.73
2022-08-09T11:44:36.560Z,26.78
2022-08-09T11:45:42.087Z,26.90
2022-08-09T11:46:37.554Z,26.96
2022-08-09T11:47:36.555Z,27.08
2022-08-09T11:48:36.536Z,27.10
2022-08-09T11:49:58.247Z,27.26
2022-08-09T11:50:54.223Z,27.20
2022-08-09T11:53:02.308Z,27.21
2022-08-09T11:53:06.296Z,27.21
2022-08-09T11:53:58.799Z,27.21
2022-08-09T11:54:37.460Z,27.25
2022-08-09T11:55:53.258Z,27.15
2022-08-09T11:56:42.414Z,27.14
2022-08-09T11:57:56.874Z,27.08
2022-08-09T11:58:37.415Z,27.10
2022-08-09T11:59:37.809Z,27.11
2022-08-09T12:00:36.392Z,27.18
2022-08-09T12:01:37.753Z,27.14
2022-08-09T12:02:39.866Z,27.17
2022-08-09T12:03:55.473Z,27.22
2022-08-09T12:04:38.215Z,27.30
2022-08-09T12:05:42.375Z,27.20
2022-08-09T12:06:37.319Z,27.21
2022-08-09T12:07:42.121Z,27.33
2022-08-09T12:08:37.311Z,27.36
2022-08-09T12:09:36.332Z,27.30
2022-08-09T12:10:39.582Z,27.33
2022-08-09T12:12:02.038Z,27.35
2022-08-09T12:12:37.278Z,27.36
2022-08-09T12:14:07.990Z,27.44
2022-08-09T12:14:40.752Z,27.48
2022-08-09T12:15:48.773Z,27.55
2022-08-09T12:16:39.865Z,27.45
2022-08-09T12:17:44.746Z,27.51
2022-08-09T12:18:37.205Z,27.64
2022-08-09T12:19:36.174Z,27.58
2022-08-09T12:20:36.167Z,27.58
2022-08-09T12:21:38.778Z,27.70
2022-08-09T12:22:36.183Z,27.73
2022-08-09T12:23:58.054Z,27.71
2022-08-09T12:24:37.123Z,27.71
2022-08-09T12:25:38.220Z,27.67
2022-08-09T12:26:36.111Z,27.73
2022-08-09T12:28:59.582Z,27.51
2022-08-09T12:29:14.152Z,27.59
2022-08-09T12:29:44.546Z,27.39
2022-08-09T12:30:39.124Z,27.37
2022-08-09T12:31:58.603Z,27.42
2022-08-09T12:32:37.033Z,27.45
2022-08-09T12:33:58.972Z,27.40
2022-08-09T12:34:37.536Z,27.42
2022-08-09T12:35:41.068Z,27.37
2022-08-09T12:36:36.999Z,27.33
2022-08-09T12:37:44.254Z,27.14
2022-08-09T12:38:38.212Z,27.10
2022-08-09T12:39:37.687Z,27.10
2022-08-09T12:40:35.967Z,27.12
2022-08-09T12:41:40.051Z,27.17
2022-08-09T12:42:36.001Z,27.17
2022-08-09T12:44:05.612Z,27.22
2022-08-09T12:44:37.218Z,27.29
2022-08-09T12:45:38.472Z,27.15
2022-08-09T12:46:36.172Z,27.26
2022-08-09T12:47:37.270Z,27.17
2022-08-09T12:48:37.425Z,27.15
2022-08-09T12:49:35.844Z,27.14
2022-08-09T12:50:35.848Z,27.15
2022-08-09T12:52:01.502Z,27.27
2022-08-09T12:52:42.581Z,27.30
2022-08-09T12:53:38.751Z,27.35
2022-08-09T12:54:35.795Z,27.33
2022-08-09T12:56:15.818Z,27.30